createdAt,value
2023-02-24T00:04:52.533Z,100571.44
2023-02-24T00:09:57.683Z,100564.72
2023-02-24T00:15:01.103Z,100557.06
2023-02-24T00:20:07.047Z,100545.53
2023-02-24T00:25:12.322Z,100529.94
2023-02-24T00:30:17.596Z,100536.63
2023-02-24T00:35:21.131Z,100529.75
2023-02-24T00:40:26.618Z,100527.47
2023-02-24T00:45:30.790Z,100529.47
2023-02-24T00:50:34.304Z,100532.78
2023-02-24T00:55:40.528Z,100512.22
2023-02-24T01:00:47.555Z,100514.72
2023-02-24T01:05:51.575Z,100509.28
2023-02-24T01:11:18.665Z,100499.38
2023-02-24T01:16:22.504Z,100500.38
2023-02-24T01:21:26.050Z,100497.06
2023-02-24T01:26:30.982Z,100485.38
2023-02-24T01:31:34.571Z,100483.25
2023-02-24T01:36:39.498Z,100480.69
2023-02-24T01:41:46.444Z,100463.66
2023-02-24T01:46:52.140Z,100461.91
2023-02-24T01:52:02.117Z,100450.31
2023-02-24T01:57:08.379Z,100451.66
2023-02-24T02:02:12.243Z,100444.00
2023-02-24T02:07:18.104Z,100445.09
2023-02-24T02:12:24.316Z,100430.63
2023-02-24T02:17:32.660Z,100420.25
2023-02-24T02:23:06.627Z,100416.19
2023-02-24T02:28:24.359Z,100403.28
2023-02-24T02:34:06.405Z,100390.22
2023-02-24T02:39:14.560Z,100378.78
2023-02-24T02:44:22.625Z,100378.16
2023-02-24T02:49:30.863Z,100373.31
2023-02-24T02:54:40.109Z,100363.56
2023-02-24T02:59:50.540Z,100359.34
2023-02-24T03:04:58.192Z,100348.38
2023-02-24T03:10:04.390Z,100351.44
2023-02-24T03:15:12.940Z,100343.63
2023-02-24T03:20:22.374Z,100341.28
2023-02-24T03:25:29.961Z,100320.97
2023-02-24T03:30:41.443Z,100316.63
2023-02-24T03:35:46.936Z,100314.97
2023-02-24T03:40:51.356Z,100321.47
2023-02-24T03:46:01.240Z,100308.97
2023-02-24T03:51:07.773Z,100299.63
2023-02-24T03:56:28.646Z,100290.50
2023-02-24T04:01:37.604Z,100291.59
2023-02-24T04:06:45.937Z,100292.34
2023-02-24T04:11:54.058Z,100294.25
2023-02-24T04:17:03.053Z,100278.53
2023-02-24T04:22:11.571Z,100278.09
2023-02-24T04:27:16.572Z,100282.00
2023-02-24T04:32:23.130Z,100275.63
2023-02-24T04:37:33.792Z,100271.44
2023-02-24T04:42:41.037Z,100268.91
2023-02-24T04:47:49.402Z,100259.03
2023-02-24T04:52:56.103Z,100250.56
2023-02-24T04:58:00.333Z,100247.59
2023-02-24T05:03:05.256Z,100245.44
2023-02-24T05:08:11.484Z,100230.78
2023-02-24T05:13:15.988Z,100211.59
2023-02-24T05:18:20.306Z,100205.59
2023-02-24T05:23:27.492Z,100197.94
2023-02-24T05:28:31.878Z,100190.91
2023-02-24T05:33:36.232Z,100170.25
2023-02-24T05:38:41.093Z,100166.66
2023-02-24T05:43:48.038Z,100161.19
2023-02-24T05:48:51.843Z,100139.06
2023-02-24T05:53:56.612Z,100137.56
2023-02-24T05:59:02.836Z,100132.34
2023-02-24T06:04:07.731Z,100118.53
2023-02-24T06:09:14.540Z,100111.19
2023-02-24T06:14:18.160Z,100110.41
2023-02-24T06:19:21.870Z,100091.63
2023-02-24T06:24:26.948Z,100080.19
2023-02-24T06:29:31.100Z,100076.69
2023-02-24T06:34:34.575Z,100066.59
2023-02-24T06:39:39.676Z,100061.56
2023-02-24T06:44:43.182Z,100063.94
2023-02-24T06:49:47.841Z,100045.88
2023-02-24T06:54:52.686Z,100045.34
2023-02-24T06:59:56.139Z,100046.34
2023-02-24T07:04:59.809Z,100037.75
2023-02-24T07:10:05.893Z,100034.28
2023-02-24T07:15:10.206Z,100026.88
2023-02-24T07:20:25.168Z,100013.81
2023-02-24T07:25:33.882Z,100008.69
2023-02-24T07:30:39.322Z,99999.88
2023-02-24T07:35:43.444Z,100001.28
2023-02-24T07:40:49.909Z,99992.00
2023-02-24T07:45:53.774Z,99977.81
2023-02-24T07:50:59.284Z,99966.47
2023-02-24T07:56:13.348Z,99960.44
2023-02-24T08:01:23.340Z,99953.56
2023-02-24T08:06:37.783Z,99951.97
2023-02-24T08:11:42.652Z,99941.22
2023-02-24T08:16:47.940Z,99930.72
2023-02-24T08:21:54.396Z,99917.34
2023-02-24T08:27:05.215Z,99916.84
2023-02-24T08:32:10.224Z,99908.84
2023-02-24T08:37:15.620Z,99898.81
2023-02-24T08:42:20.987Z,99884.69
2023-02-24T08:47:30.940Z,99882.38
2023-02-24T08:52:35.560Z,99880.44
2023-02-24T08:57:40.424Z,99888.50
2023-02-24T09:02:43.826Z,99868.75
2023-02-24T09:07:54.509Z,99886.63
2023-02-24T09:13:01.219Z,99857.06
2023-02-24T09:18:08.214Z,99852.13
2023-02-24T09:23:19.985Z,99843.09
2023-02-24T09:28:27.096Z,99839.19
2023-02-24T09:33:38.857Z,99829.38
2023-02-24T09:44:18.573Z,99812.19
2023-02-24T09:49:24.912Z,99805.09
2023-02-24T09:54:32.745Z,99791.53
2023-02-24T09:59:50.998Z,99784.72
2023-02-24T10:05:07.087Z,99774.63
2023-02-24T10:10:27.906Z,99765.16
2023-02-24T10:15:59.044Z,99745.28
2023-02-24T10:21:10.893Z,99756.13
2023-02-24T10:26:30.552Z,99744.22
2023-02-24T10:31:40.297Z,99736.44
2023-02-24T10:36:47.682Z,99728.34
2023-02-24T10:41:57.395Z,99723.81
2023-02-24T10:47:11.533Z,99698.88
2023-02-24T10:52:33.255Z,99693.84
2023-02-24T10:57:58.318Z,99688.88
2023-02-24T11:03:10.409Z,99659.50
2023-02-24T11:08:36.700Z,99645.25
2023-02-24T11:13:57.867Z,99645.88
2023-02-24T11:19:02.840Z,99627.81
2023-02-24T11:24:07.343Z,99604.06
2023-02-24T11:29:26.771Z,99608.91
2023-02-24T11:34:36.169Z,99584.91
2023-02-24T11:39:48.498Z,99570.38
2023-02-24T11:44:54.785Z,99568.19
2023-02-24T11:50:08.730Z,99558.22
2023-02-24T11:55:29.619Z,99539.53
2023-02-24T12:00:34.789Z,99533.75
2023-02-24T12:05:42.054Z,99528.03
2023-02-24T12:10:48.631Z,99513.44
2023-02-24T12:15:57.267Z,99514.16
2023-02-24T12:21:06.861Z,99501.91
2023-02-24T12:26:17.926Z,99502.19
2023-02-24T12:31:26.124Z,99495.00
2023-02-24T12:36:50.451Z,99491.63
2023-02-24T12:42:01.057Z,99487.44
2023-02-24T12:47:07.869Z,99471.50
2023-02-24T12:52:18.207Z,99483.25
2023-02-24T12:57:28.256Z,99470.94
2023-02-24T13:02:38.844Z,99462.09
2023-02-24T13:07:51.929Z,99451.97
2023-02-24T13:13:03.649Z,99459.75
2023-02-24T13:18:07.196Z,99424.09
2023-02-24T13:23:21.890Z,99427.91
2023-02-24T13:28:27.753Z,99407.53
2023-02-24T13:33:33.444Z,99403.97
2023-02-24T13:38:40.480Z,99388.16
2023-02-24T13:43:54.854Z,99392.81
2023-02-24T13:49:04.773Z,99383.56
2023-02-24T13:54:35.650Z,99376.31
2023-02-24T13:59:56.140Z,99374.19
2023-02-24T14:05:03.326Z,99363.75
2023-02-24T14:10:19.060Z,99352.19
2023-02-24T14:15:25.362Z,99346.78
2023-02-24T14:20:32.056Z,99328.25
2023-02-24T14:25:39.415Z,99316.16
2023-02-24T14:30:42.963Z,99322.59
2023-02-24T14:35:48.546Z,99311.50
2023-02-24T14:40:53.495Z,99303.31
2023-02-24T14:45:58.525Z,99303.34
2023-02-24T14:51:04.095Z,99288.28
2023-02-24T14:56:10.657Z,99292.47
2023-02-24T15:01:21.950Z,99275.50
2023-02-24T15:06:26.802Z,99266.72
2023-02-24T15:11:32.723Z,99264.72
2023-02-24T15:16:38.701Z,99265.56
2023-02-24T15:21:43.212Z,99257.91
2023-02-24T15:26:54.395Z,99245.88
2023-02-24T15:31:59.848Z,99247.22
2023-02-24T15:37:05.885Z,99237.03
2023-02-24T15:42:22.038Z,99234.69
2023-02-24T15:47:27.416Z,99213.38
2023-02-24T15:52:30.894Z,99205.13
2023-02-24T15:57:36.609Z,99208.22
2023-02-24T16:02:40.437Z,99200.84
2023-02-24T16:07:45.556Z,99190.75
2023-02-24T16:12:52.652Z,99182.91
2023-02-24T16:17:56.852Z,99175.13
2023-02-24T16:23:02.333Z,99180.72
2023-02-24T16:28:07.178Z,99175.69
2023-02-24T16:33:13.107Z,99169.25
2023-02-24T16:38:18.095Z,99172.63
2023-02-24T16:43:22.973Z,99160.03
2023-02-24T16:48:27.738Z,99155.09
2023-02-24T16:53:31.452Z,99154.78
2023-02-24T16:58:36.443Z,99145.13
2023-02-24T17:03:43.925Z,99147.03
2023-02-24T17:08:47.697Z,99150.69
2023-02-24T17:13:52.533Z,99154.97
2023-02-24T17:18:55.927Z,99138.47
2023-02-24T17:23:59.427Z,99139.56
2023-02-24T17:29:04.414Z,99129.28
2023-02-24T17:34:07.866Z,99133.66
2023-02-24T17:39:11.351Z,99129.41
2023-02-24T17:44:16.286Z,99134.97
2023-02-24T17:49:19.724Z,99139.56
2023-02-24T17:54:23.181Z,99143.16
2023-02-24T17:59:28.073Z,99152.63
2023-02-24T18:04:31.863Z,99153.47
2023-02-24T18:09:35.468Z,99150.81
2023-02-24T18:14:40.340Z,99148.44
2023-02-24T18:19:43.829Z,99141.50
2023-02-24T18:24:47.317Z,99147.75
2023-02-24T18:29:52.089Z,99148.16
2023-02-24T18:34:55.953Z,99150.41
2023-02-24T18:39:59.403Z,99151.78
2023-02-24T18:45:04.469Z,99160.97
2023-02-24T18:50:09.404Z,99162.19
2023-02-24T18:55:12.865Z,99157.06
2023-02-24T19:00:18.748Z,99161.47
2023-02-24T19:05:22.229Z,99159.53
2023-02-24T19:10:25.660Z,99171.25
2023-02-24T19:15:30.544Z,99164.88
2023-02-24T19:20:34.114Z,99168.34
2023-02-24T19:25:37.730Z,99157.31
2023-02-24T19:30:42.564Z,99163.34
2023-02-24T19:35:46.028Z,99154.16
2023-02-24T19:40:49.512Z,99161.06
2023-02-24T19:45:54.360Z,99161.50
2023-02-24T19:50:57.789Z,99161.50
2023-02-24T19:56:01.288Z,99170.25
2023-02-24T20:01:09.202Z,99171.25
2023-02-24T20:06:18.302Z,99173.31
2023-02-24T20:11:22.205Z,99167.91
2023-02-24T20:16:31.965Z,99175.44
2023-02-24T20:21:35.457Z,99177.38
2023-02-24T20:26:41.035Z,99179.88
2023-02-24T20:31:46.308Z,99189.97
2023-02-24T20:36:49.913Z,99184.50
2023-02-24T20:41:54.945Z,99179.56
2023-02-24T20:46:59.738Z,99191.66
2023-02-24T20:52:03.193Z,99188.06
2023-02-24T20:57:08.861Z,99180.06
2023-02-24T21:02:13.761Z,99173.72
2023-02-24T21:07:17.273Z,99176.81
2023-02-24T21:12:20.750Z,99200.91
2023-02-24T21:17:25.571Z,99192.81
2023-02-24T21:22:31.109Z,99174.41
2023-02-24T21:27:34.717Z,99173.03
2023-02-24T21:32:39.598Z,99163.47
2023-02-24T21:37:43.221Z,99180.53
2023-02-24T21:42:47.547Z,99177.56
2023-02-24T21:47:52.434Z,99182.66
2023-02-24T21:52:55.890Z,99187.25
2023-02-24T21:57:59.476Z,99194.94
2023-02-24T22:03:04.431Z,99189.38
2023-02-24T22:08:08.215Z,99216.28
2023-02-24T22:13:11.645Z,99194.66
2023-02-24T22:18:16.670Z,99189.63
2023-02-24T22:23:20.134Z,99199.81
2023-02-24T22:28:23.537Z,99197.31
2023-02-24T22:33:29.040Z,99211.44
2023-02-24T22:38:32.997Z,99202.69
2023-02-24T22:43:36.630Z,99200.47
2023-02-24T22:48:41.716Z,99214.00
2023-02-24T22:53:46.594Z,99212.09
2023-02-24T22:58:50.835Z,99202.09
2023-02-24T23:03:56.131Z,99198.81
2023-02-24T23:09:00.799Z,99197.34
2023-02-24T23:14:06.774Z,99208.72
2023-02-24T23:19:16.067Z,99196.16
2023-02-24T23:24:21.576Z,99195.88
2023-02-24T23:29:26.506Z,99203.06
2023-02-24T23:34:31.498Z,99204.44
2023-02-24T23:39:35.023Z,99220.28
2023-02-24T23:44:38.936Z,99215.13
2023-02-24T23:49:48.365Z,99203.63
2023-02-24T23:54:53.032Z,99203.31
2023-02-24T23:59:56.499Z,99221.69
